createdAt,value
2023-02-12T00:00:22.666Z,8.50
2023-02-12T00:03:25.533Z,9.93
2023-02-12T00:06:28.265Z,7.00
2023-02-12T00:09:31.043Z,8.52
2023-02-12T00:12:33.892Z,8.80
2023-02-12T00:15:40.026Z,8.43
2023-02-12T00:18:44.005Z,8.88
2023-02-12T00:21:46.932Z,8.10
2023-02-12T00:24:49.669Z,10.75
2023-02-12T00:27:52.333Z,9.73
2023-02-12T00:30:55.125Z,8.02
2023-02-12T00:33:59.523Z,8.27
2023-02-12T00:37:02.317Z,8.83
2023-02-12T00:40:06.328Z,8.20
2023-02-12T00:43:09.066Z,8.02
2023-02-12T00:46:12.013Z,8.82
2023-02-12T00:49:14.980Z,8.50
2023-02-12T00:52:17.730Z,9.47
2023-02-12T00:55:20.586Z,7.18
2023-02-12T00:58:24.464Z,8.48
2023-02-12T01:01:27.362Z,7.57
2023-02-12T01:04:30.232Z,8.15
2023-02-12T01:07:33.015Z,7.60
2023-02-12T01:10:35.834Z,7.10
2023-02-12T01:13:38.705Z,7.15
2023-02-12T01:16:41.684Z,7.03
2023-02-12T01:19:44.649Z,7.13
2023-02-12T01:22:47.837Z,7.93
2023-02-12T01:25:50.545Z,6.38
2023-02-12T01:28:56.085Z,9.02
2023-02-12T01:31:58.998Z,7.78
2023-02-12T01:35:03.270Z,6.85
2023-02-12T01:38:06.195Z,9.00
2023-02-12T01:41:15.578Z,7.63
2023-02-12T01:44:24.370Z,7.85
2023-02-12T01:47:27.909Z,7.53
2023-02-12T01:50:31.794Z,6.15
2023-02-12T01:53:42.999Z,8.07
2023-02-12T01:56:45.849Z,6.85
2023-02-12T01:59:53.328Z,7.45
2023-02-12T02:03:00.193Z,7.47
2023-02-12T02:06:12.924Z,6.85
2023-02-12T02:09:18.849Z,7.93
2023-02-12T02:12:40.405Z,7.25
2023-02-12T02:15:47.313Z,7.88
2023-02-12T02:19:20.921Z,6.55
2023-02-12T02:22:23.620Z,8.15
2023-02-12T02:26:04.026Z,7.67
2023-02-12T02:29:25.907Z,8.63
2023-02-12T02:32:41.935Z,6.65
2023-02-12T02:35:44.686Z,8.32
2023-02-12T02:39:02.729Z,8.60
2023-02-12T02:42:14.456Z,8.00
2023-02-12T02:45:25.268Z,6.05
2023-02-12T02:48:35.496Z,9.07
2023-02-12T02:51:43.088Z,8.43
2023-02-12T02:54:53.025Z,8.27
2023-02-12T02:58:00.858Z,7.27
2023-02-12T03:01:09.560Z,8.90
2023-02-12T03:04:38.648Z,8.23
2023-02-12T03:07:52.815Z,7.68
2023-02-12T03:11:02.938Z,8.35
2023-02-12T03:14:20.967Z,7.23
2023-02-12T03:17:35.210Z,8.38
2023-02-12T03:20:45.885Z,7.80
2023-02-12T03:24:06.320Z,8.27
2023-02-12T03:27:19.833Z,8.57
2023-02-12T03:30:24.815Z,7.23
2023-02-12T03:33:50.085Z,8.82
2023-02-12T03:37:27.461Z,9.65
2023-02-12T03:41:00.239Z,9.05
2023-02-12T03:44:18.417Z,8.23
2023-02-12T03:47:26.666Z,7.50
2023-02-12T03:50:39.967Z,8.68
2023-02-12T03:53:44.290Z,8.52
2023-02-12T03:56:54.060Z,9.43
2023-02-12T03:59:59.202Z,7.60
2023-02-12T04:03:02.309Z,9.13
2023-02-12T04:06:05.801Z,8.27
2023-02-12T04:09:12.313Z,7.38
2023-02-12T04:12:48.044Z,9.07
2023-02-12T04:16:21.887Z,8.55
2023-02-12T04:19:43.291Z,8.13
2023-02-12T04:23:00.458Z,9.05
2023-02-12T04:26:05.852Z,8.75
2023-02-12T04:29:08.596Z,7.25
2023-02-12T04:32:18.605Z,8.02
2023-02-12T04:35:31.562Z,9.10
2023-02-12T04:39:01.148Z,8.65
2023-02-12T04:42:04.442Z,9.38
2023-02-12T04:45:10.970Z,8.63
2023-02-12T04:48:13.718Z,8.52
2023-02-12T04:51:16.464Z,7.27
2023-02-12T04:54:20.816Z,9.02
2023-02-12T04:57:23.506Z,9.10
2023-02-12T05:00:26.536Z,8.18
2023-02-12T05:03:29.255Z,8.65
2023-02-12T05:06:34.729Z,8.07
2023-02-12T05:09:37.808Z,9.73
2023-02-12T05:12:40.800Z,10.98
2023-02-12T05:15:43.623Z,9.02
2023-02-12T05:18:47.442Z,9.88
2023-02-12T05:21:51.588Z,10.40
2023-02-12T05:24:54.322Z,9.02
2023-02-12T05:27:57.554Z,9.85
2023-02-12T05:31:05.789Z,8.70
2023-02-12T05:34:11.285Z,8.25
2023-02-12T05:37:14.041Z,8.90
2023-02-12T05:40:17.170Z,9.43
2023-02-12T05:43:19.918Z,9.95
2023-02-12T05:46:22.781Z,9.07
2023-02-12T05:49:25.841Z,10.40
2023-02-12T05:52:28.679Z,8.30
2023-02-12T05:55:31.557Z,9.20
2023-02-12T05:58:34.347Z,8.40
2023-02-12T06:01:41.927Z,10.20
2023-02-12T06:04:46.944Z,9.13
2023-02-12T06:07:50.994Z,8.17
2023-02-12T06:10:53.817Z,10.05
2023-02-12T06:13:56.613Z,10.52
2023-02-12T06:16:59.457Z,10.50
2023-02-12T06:20:02.214Z,10.73
2023-02-12T06:23:04.955Z,11.00
2023-02-12T06:26:07.820Z,11.10
2023-02-12T06:29:11.003Z,10.23
2023-02-12T06:32:15.446Z,11.77
2023-02-12T06:35:18.247Z,11.30
2023-02-12T06:38:21.723Z,10.53
2023-02-12T06:41:24.591Z,11.35
2023-02-12T06:44:27.393Z,11.50
2023-02-12T06:47:30.174Z,12.82
2023-02-12T06:50:33.391Z,10.32
2023-02-12T06:53:36.505Z,11.03
2023-02-12T06:56:39.261Z,10.10
2023-02-12T06:59:42.212Z,10.60
2023-02-12T07:02:45.032Z,11.52
2023-02-12T07:05:48.464Z,9.25
2023-02-12T07:08:51.423Z,9.73
2023-02-12T07:11:56.539Z,10.65
2023-02-12T07:14:59.300Z,10.68
2023-02-12T07:18:01.997Z,9.32
2023-02-12T07:21:07.111Z,9.85
2023-02-12T07:24:14.873Z,8.80
2023-02-12T07:27:18.024Z,9.77
2023-02-12T07:30:20.758Z,9.52
2023-02-12T07:33:23.651Z,9.85
2023-02-12T07:36:29.255Z,9.07
2023-02-12T07:39:32.035Z,10.03
2023-02-12T07:42:34.806Z,9.30
2023-02-12T07:45:41.629Z,9.73
2023-02-12T07:48:45.963Z,8.70
2023-02-12T07:51:50.270Z,10.27
2023-02-12T07:54:53.016Z,9.33
2023-02-12T07:57:55.786Z,9.25
2023-02-12T08:00:58.458Z,9.85
2023-02-12T08:04:13.532Z,9.75
2023-02-12T08:07:16.331Z,9.70
2023-02-12T08:10:22.439Z,9.07
2023-02-12T08:13:25.289Z,9.23
2023-02-12T08:16:29.976Z,9.25
2023-02-12T08:19:32.834Z,10.77
2023-02-12T08:22:35.652Z,11.48
2023-02-12T08:25:38.456Z,9.77
2023-02-12T08:28:43.842Z,9.57
2023-02-12T08:31:49.533Z,9.30
2023-02-12T08:34:52.328Z,10.70
2023-02-12T08:37:55.071Z,9.43
2023-02-12T08:41:01.685Z,8.70
2023-02-12T08:44:05.540Z,9.88
2023-02-12T08:47:10.187Z,9.13
2023-02-12T08:50:13.071Z,7.60
2023-02-12T08:53:15.912Z,8.70
2023-02-12T08:56:19.087Z,10.57
2023-02-12T08:59:21.956Z,8.88
2023-02-12T09:02:24.955Z,8.45
2023-02-12T09:05:27.761Z,8.13
2023-02-12T09:08:31.179Z,9.35
2023-02-12T09:11:35.816Z,8.37
2023-02-12T09:14:38.707Z,8.63
2023-02-12T09:17:43.373Z,8.27
2023-02-12T09:20:46.152Z,8.07
2023-02-12T09:23:49.209Z,9.18
2023-02-12T09:26:51.940Z,8.50
2023-02-12T09:29:54.673Z,7.72
2023-02-12T09:32:57.591Z,7.82
2023-02-12T09:36:08.961Z,9.45
2023-02-12T09:39:11.689Z,7.90
2023-02-12T09:42:15.443Z,7.60
2023-02-12T09:45:21.844Z,10.73
2023-02-12T09:48:27.333Z,7.82
2023-02-12T09:51:31.640Z,7.00
2023-02-12T09:54:44.550Z,9.57
2023-02-12T09:57:47.588Z,7.57
2023-02-12T10:00:50.361Z,9.05
2023-02-12T10:03:53.318Z,8.07
2023-02-12T10:07:06.344Z,7.95
2023-02-12T10:10:33.120Z,8.60
2023-02-12T10:14:23.433Z,8.40
2023-02-12T10:17:38.174Z,7.60
2023-02-12T10:21:16.186Z,6.72
2023-02-12T10:24:48.439Z,6.00
2023-02-12T10:27:54.915Z,8.40
2023-02-12T10:31:09.088Z,7.50
2023-02-12T10:34:22.714Z,6.85
2023-02-12T10:37:43.833Z,8.27
2023-02-12T10:40:46.896Z,7.63
2023-02-12T10:43:49.861Z,7.75
2023-02-12T10:46:52.967Z,7.83
2023-02-12T10:50:02.710Z,7.43
2023-02-12T10:53:06.200Z,7.45
2023-02-12T10:56:11.994Z,7.93
2023-02-12T10:59:24.179Z,7.72
2023-02-12T11:02:34.621Z,7.73
2023-02-12T11:05:39.951Z,6.82
2023-02-12T11:08:43.772Z,7.00
2023-02-12T11:11:48.060Z,7.55
2023-02-12T11:14:55.488Z,8.25
2023-02-12T11:18:07.699Z,7.30
2023-02-12T11:21:12.692Z,6.32
2023-02-12T11:24:31.577Z,7.78
2023-02-12T11:27:34.527Z,7.50
2023-02-12T11:30:53.187Z,8.15
2023-02-12T11:34:20.358Z,8.00
2023-02-12T11:37:23.161Z,8.38
2023-02-12T11:40:31.651Z,9.00
2023-02-12T11:43:38.564Z,7.50
2023-02-12T11:46:52.040Z,6.72
2023-02-12T11:49:56.703Z,6.33
2023-02-12T11:53:07.015Z,6.85
2023-02-12T11:56:14.520Z,5.65
2023-02-12T11:59:29.235Z,6.25
2023-02-12T12:02:39.308Z,6.63
2023-02-12T12:05:48.461Z,5.10
2023-02-12T12:08:54.310Z,5.00
2023-02-12T12:12:13.813Z,5.07
2023-02-12T12:15:41.294Z,5.03
2023-02-12T12:19:11.214Z,5.15
2023-02-12T12:22:23.150Z,5.57
2023-02-12T12:25:45.288Z,5.68
2023-02-12T12:29:06.823Z,5.57
2023-02-12T12:32:14.492Z,6.28
2023-02-12T12:35:24.060Z,5.10
2023-02-12T12:39:01.651Z,5.17
2023-02-12T12:42:28.274Z,5.47
2023-02-12T12:46:10.447Z,4.43
2023-02-12T12:49:32.520Z,4.40
2023-02-12T12:53:32.456Z,5.28
2023-02-12T12:56:40.336Z,4.67
2023-02-12T13:00:09.479Z,5.38
2023-02-12T13:03:39.845Z,5.28
2023-02-12T13:07:13.644Z,4.90
2023-02-12T13:10:48.808Z,4.20
2023-02-12T13:14:04.124Z,5.70
2023-02-12T13:17:21.971Z,5.50
2023-02-12T13:20:51.602Z,5.70
2023-02-12T13:24:36.196Z,5.93
2023-02-12T13:27:42.450Z,5.80
2023-02-12T13:30:50.352Z,5.90
2023-02-12T13:33:58.470Z,5.05
2023-02-12T13:37:02.969Z,5.03
2023-02-12T13:40:14.597Z,5.55
2023-02-12T13:43:59.426Z,5.90
2023-02-12T13:47:14.448Z,5.23
2023-02-12T13:50:45.010Z,5.80
2023-02-12T13:53:54.876Z,5.95
2023-02-12T13:57:02.640Z,5.38
2023-02-12T14:00:09.856Z,5.53
2023-02-12T14:03:14.624Z,5.70
2023-02-12T14:06:22.162Z,5.75
2023-02-12T14:09:32.484Z,5.47
2023-02-12T14:12:43.045Z,4.80
2023-02-12T14:15:51.378Z,5.10
2023-02-12T14:19:32.793Z,5.07
2023-02-12T14:22:42.577Z,5.05
2023-02-12T14:26:04.386Z,5.15
2023-02-12T14:29:21.192Z,5.38
2023-02-12T14:32:53.844Z,5.72
2023-02-12T14:36:20.209Z,5.13
2023-02-12T14:39:23.287Z,5.28
2023-02-12T14:42:26.189Z,5.72
2023-02-12T14:45:35.180Z,5.50
2023-02-12T14:48:49.923Z,5.53
2023-02-12T14:52:00.544Z,5.07
2023-02-12T14:55:07.716Z,5.88
2023-02-12T14:58:20.119Z,5.05
2023-02-12T15:01:33.028Z,14.68
2023-02-12T15:04:38.892Z,7.15
2023-02-12T15:07:48.778Z,8.20
2023-02-12T15:11:03.617Z,7.53
2023-02-12T15:14:23.151Z,18.45
2023-02-12T15:17:31.096Z,18.58
2023-02-12T15:20:41.056Z,7.57
2023-02-12T15:23:45.474Z,7.23
2023-02-12T15:26:57.839Z,7.43
2023-02-12T15:30:00.904Z,7.63
2023-02-12T15:33:09.567Z,9.65
2023-02-12T15:36:21.344Z,8.63
2023-02-12T15:39:25.125Z,5.70
2023-02-12T15:42:30.891Z,6.45
2023-02-12T15:45:36.679Z,7.35
2023-02-12T15:48:39.890Z,6.25
2023-02-12T15:51:43.050Z,5.90
2023-02-12T15:54:47.923Z,6.93
2023-02-12T15:57:53.568Z,8.43
2023-02-12T16:01:02.702Z,7.72
2023-02-12T16:04:08.264Z,11.52
2023-02-12T16:07:13.637Z,11.30
2023-02-12T16:10:19.783Z,9.87
2023-02-12T16:13:34.951Z,19.40
2023-02-12T16:16:58.349Z,18.50
2023-02-12T16:20:21.881Z,22.70
2023-02-12T16:23:24.803Z,18.30
2023-02-12T16:26:28.353Z,17.90
2023-02-12T16:29:34.102Z,17.33
2023-02-12T16:32:42.759Z,15.77
2023-02-12T16:35:45.847Z,14.65
2023-02-12T16:38:52.811Z,15.23
2023-02-12T16:41:56.935Z,13.13
2023-02-12T16:44:59.933Z,16.05
2023-02-12T16:48:05.424Z,18.73
2023-02-12T16:51:23.190Z,26.98
2023-02-12T16:54:30.823Z,29.80
2023-02-12T16:57:33.935Z,28.50
2023-02-12T17:00:37.043Z,21.23
2023-02-12T17:03:40.427Z,24.60
2023-02-12T17:06:44.460Z,23.17
2023-02-12T17:09:47.825Z,31.80
2023-02-12T17:12:52.538Z,26.53
2023-02-12T17:15:57.214Z,25.00
2023-02-12T17:19:01.039Z,22.73
2023-02-12T17:22:06.182Z,30.77
2023-02-12T17:25:12.202Z,28.08
2023-02-12T17:28:15.829Z,23.60
2023-02-12T17:31:20.858Z,23.52
2023-02-12T17:34:24.651Z,22.55
2023-02-12T17:37:27.750Z,28.00
2023-02-12T17:40:30.787Z,27.60
2023-02-12T17:43:33.859Z,26.67
2023-02-12T17:46:36.584Z,27.77
2023-02-12T17:49:40.488Z,20.05
2023-02-12T17:52:44.256Z,18.25
2023-02-12T17:55:47.188Z,18.15
2023-02-12T17:58:50.898Z,18.90
2023-02-12T18:01:53.939Z,18.63
2023-02-12T18:05:00.139Z,17.15
2023-02-12T18:08:03.702Z,19.73
2023-02-12T18:11:10.081Z,16.88
2023-02-12T18:14:13.219Z,18.73
2023-02-12T18:17:16.522Z,19.90
2023-02-12T18:20:19.817Z,17.75
2023-02-12T18:23:22.752Z,22.42
2023-02-12T18:26:25.551Z,28.08
2023-02-12T18:29:29.052Z,26.37
2023-02-12T18:32:31.809Z,23.08
2023-02-12T18:35:36.364Z,23.98
2023-02-12T18:38:40.934Z,25.58
2023-02-12T18:41:44.045Z,27.63
2023-02-12T18:44:47.175Z,25.23
2023-02-12T18:47:50.196Z,27.75
2023-02-12T18:50:55.370Z,24.77
2023-02-12T18:54:07.323Z,28.83
2023-02-12T18:57:10.928Z,29.08
2023-02-12T19:00:14.565Z,27.73
2023-02-12T19:03:17.828Z,23.23
2023-02-12T19:06:21.913Z,21.40
2023-02-12T19:09:26.401Z,28.70
2023-02-12T19:12:30.963Z,25.67
2023-02-12T19:15:34.312Z,22.23
2023-02-12T19:18:37.716Z,18.35
2023-02-12T19:21:42.564Z,20.55
2023-02-12T19:24:47.119Z,17.85
2023-02-12T19:27:50.094Z,20.00
2023-02-12T19:30:53.061Z,20.53
2023-02-12T19:33:59.464Z,23.90
2023-02-12T19:37:02.484Z,21.35
2023-02-12T19:40:06.057Z,21.65
2023-02-12T19:43:09.172Z,27.70
2023-02-12T19:46:15.332Z,21.33
2023-02-12T19:49:23.847Z,17.60
2023-02-12T19:52:27.244Z,19.52
2023-02-12T19:55:30.355Z,21.25
2023-02-12T19:58:34.856Z,21.02
2023-02-12T20:01:38.161Z,25.77
2023-02-12T20:04:41.076Z,29.80
2023-02-12T20:07:44.290Z,28.45
2023-02-12T20:10:47.509Z,30.15
2023-02-12T20:13:51.019Z,33.55
2023-02-12T20:16:56.463Z,48.40
2023-02-12T20:19:59.493Z,32.83
2023-02-12T20:23:02.749Z,33.70
2023-02-12T20:26:09.088Z,28.23
2023-02-12T20:29:12.449Z,24.98
2023-02-12T20:32:16.525Z,24.90
2023-02-12T20:35:19.487Z,27.02
2023-02-12T20:38:22.910Z,28.83
2023-02-12T20:41:27.550Z,28.77
2023-02-12T20:44:31.179Z,26.75
2023-02-12T20:47:34.351Z,30.63
2023-02-12T20:50:37.268Z,27.52
2023-02-12T20:53:41.672Z,26.98
2023-02-12T20:56:44.704Z,27.60
2023-02-12T20:59:49.876Z,26.95
2023-02-12T21:02:54.648Z,29.97
2023-02-12T21:05:57.920Z,27.08
2023-02-12T21:09:01.458Z,35.10
2023-02-12T21:12:05.601Z,32.10
2023-02-12T21:15:08.954Z,31.95
2023-02-12T21:18:11.997Z,32.50
2023-02-12T21:21:20.710Z,31.90
2023-02-12T21:24:25.930Z,33.65
2023-02-12T21:27:28.974Z,24.90
2023-02-12T21:30:31.918Z,26.42
2023-02-12T21:33:35.088Z,20.93
2023-02-12T21:36:40.766Z,23.15
2023-02-12T21:39:43.521Z,24.30
2023-02-12T21:42:46.577Z,21.80
2023-02-12T21:45:51.126Z,22.33
2023-02-12T21:48:54.467Z,21.23
2023-02-12T21:52:03.124Z,21.75
2023-02-12T21:55:06.125Z,23.13
2023-02-12T21:58:08.943Z,22.40
2023-02-12T22:01:19.552Z,27.63
2023-02-12T22:04:22.468Z,26.40
2023-02-12T22:07:25.138Z,24.92
2023-02-12T22:10:28.918Z,24.15
2023-02-12T22:13:32.112Z,23.98
2023-02-12T22:16:36.457Z,20.55
2023-02-12T22:19:39.461Z,18.77
2023-02-12T22:22:42.313Z,19.42
2023-02-12T22:25:45.014Z,17.50
2023-02-12T22:28:53.064Z,17.65
2023-02-12T22:31:56.069Z,17.73
2023-02-12T22:34:58.809Z,17.00
2023-02-12T22:38:02.510Z,15.55
2023-02-12T22:41:06.265Z,13.18
2023-02-12T22:44:11.193Z,13.63
2023-02-12T22:47:13.933Z,15.45
2023-02-12T22:50:16.878Z,14.37
2023-02-12T22:53:19.662Z,14.32
2023-02-12T22:56:23.145Z,15.52
2023-02-12T22:59:25.811Z,13.57
2023-02-12T23:02:28.624Z,15.35
2023-02-12T23:05:31.573Z,15.13
2023-02-12T23:08:34.989Z,15.77
2023-02-12T23:11:37.879Z,14.18
2023-02-12T23:14:40.624Z,15.23
2023-02-12T23:17:43.421Z,14.68
2023-02-12T23:20:47.169Z,14.53
2023-02-12T23:23:50.030Z,11.38
2023-02-12T23:26:53.886Z,13.65
2023-02-12T23:29:56.641Z,14.55
2023-02-12T23:32:59.490Z,12.65
2023-02-12T23:36:02.276Z,13.50
2023-02-12T23:39:06.191Z,13.32
2023-02-12T23:42:09.676Z,11.38
2023-02-12T23:45:13.075Z,11.93
2023-02-12T23:48:15.950Z,11.13
2023-02-12T23:51:18.705Z,10.70
2023-02-12T23:54:21.451Z,10.45
2023-02-12T23:57:24.286Z,8.93
